createdAt,value
2022-10-07T00:00:56.543Z,7.20
2022-10-07T00:03:26.372Z,8.77
2022-10-07T00:06:07.085Z,4.82
2022-10-07T00:08:37.185Z,5.10
2022-10-07T00:11:10.446Z,7.50
2022-10-07T00:13:40.511Z,6.65
2022-10-07T00:16:17.587Z,4.43
2022-10-07T00:18:45.425Z,5.68
2022-10-07T00:21:19.422Z,5.55
2022-10-07T00:23:47.824Z,6.47
2022-10-07T00:26:20.373Z,4.78
2022-10-07T00:28:47.020Z,4.80
2022-10-07T00:31:18.347Z,4.78
2022-10-07T00:33:45.824Z,6.68
2022-10-07T00:36:18.221Z,5.72
2022-10-07T00:38:44.959Z,6.47
2022-10-07T00:41:23.319Z,4.25
2022-10-07T00:43:49.860Z,5.22
2022-10-07T00:46:39.857Z,6.15
2022-10-07T00:49:13.846Z,5.05
2022-10-07T00:51:43.632Z,6.38
2022-10-07T00:54:17.667Z,4.32
2022-10-07T00:56:49.065Z,4.55
2022-10-07T00:59:18.532Z,5.22
2022-10-07T01:01:45.146Z,5.00
2022-10-07T01:04:15.036Z,5.75
2022-10-07T01:06:43.091Z,4.63
2022-10-07T01:09:12.751Z,5.82
2022-10-07T01:11:59.477Z,5.30
2022-10-07T01:15:00.135Z,6.05
2022-10-07T01:17:53.149Z,5.38
2022-10-07T01:20:46.717Z,5.65
2022-10-07T01:23:40.655Z,6.20
2022-10-07T01:26:14.751Z,6.03
2022-10-07T01:28:49.739Z,7.35
2022-10-07T01:31:25.112Z,5.97
2022-10-07T01:33:54.984Z,4.10
2022-10-07T01:36:26.380Z,4.38
2022-10-07T01:39:06.514Z,5.72
2022-10-07T01:41:37.124Z,5.88
2022-10-07T01:44:04.521Z,4.97
2022-10-07T01:46:33.378Z,3.50
2022-10-07T01:49:00.049Z,3.88
2022-10-07T01:51:34.007Z,4.22
2022-10-07T01:54:34.862Z,7.13
2022-10-07T01:57:32.362Z,4.55
2022-10-07T02:00:12.225Z,4.45
2022-10-07T02:02:47.357Z,4.60
2022-10-07T02:05:47.870Z,3.38
2022-10-07T02:08:30.325Z,6.77
2022-10-07T02:11:12.948Z,5.13
2022-10-07T02:14:01.287Z,5.30
2022-10-07T02:16:32.666Z,4.28
2022-10-07T02:19:07.570Z,4.72
2022-10-07T02:21:38.136Z,4.55
2022-10-07T02:24:10.580Z,4.72
2022-10-07T02:26:39.889Z,7.13
2022-10-07T02:29:13.053Z,5.13
2022-10-07T02:31:43.247Z,3.13
2022-10-07T02:34:19.890Z,4.57
2022-10-07T02:37:10.555Z,3.22
2022-10-07T02:39:37.843Z,6.43
2022-10-07T02:42:21.780Z,4.38
2022-10-07T02:45:32.014Z,5.45
2022-10-07T02:48:37.167Z,4.68
2022-10-07T02:51:11.901Z,9.02
2022-10-07T02:53:41.203Z,5.22
2022-10-07T02:56:08.725Z,6.15
2022-10-07T02:58:36.193Z,6.57
2022-10-07T03:01:07.806Z,5.30
2022-10-07T03:03:34.440Z,7.82
2022-10-07T03:06:04.599Z,5.75
2022-10-07T03:08:32.267Z,4.32
2022-10-07T03:10:59.337Z,5.03
2022-10-07T03:13:26.237Z,4.47
2022-10-07T03:15:52.904Z,7.80
2022-10-07T03:18:29.138Z,6.50
2022-10-07T03:20:58.056Z,4.63
2022-10-07T03:23:25.229Z,6.63
2022-10-07T03:25:54.861Z,3.70
2022-10-07T03:28:25.111Z,4.22
2022-10-07T03:30:52.557Z,5.23
2022-10-07T03:33:24.973Z,5.03
2022-10-07T03:35:52.306Z,6.57
2022-10-07T03:38:18.799Z,5.07
2022-10-07T03:40:45.578Z,6.75
2022-10-07T03:43:12.133Z,5.00
2022-10-07T03:45:50.076Z,6.38
2022-10-07T03:48:17.482Z,6.50
2022-10-07T03:50:52.245Z,5.13
2022-10-07T03:53:20.932Z,5.53
2022-10-07T03:55:47.455Z,5.75
2022-10-07T03:58:15.055Z,6.47
2022-10-07T04:00:41.614Z,5.55
2022-10-07T04:03:09.483Z,5.47
2022-10-07T04:05:37.649Z,4.35
2022-10-07T04:08:05.133Z,4.05
2022-10-07T04:10:32.777Z,4.40
2022-10-07T04:12:59.330Z,7.30
2022-10-07T04:15:26.722Z,4.30
2022-10-07T04:18:00.258Z,5.90
2022-10-07T04:20:26.979Z,4.53
2022-10-07T04:22:53.606Z,7.65
2022-10-07T04:25:35.721Z,5.57
2022-10-07T04:28:07.319Z,6.50
2022-10-07T04:30:40.258Z,6.50
2022-10-07T04:33:08.009Z,5.10
2022-10-07T04:35:38.804Z,6.93
2022-10-07T04:38:09.719Z,4.60
2022-10-07T04:40:40.931Z,5.80
2022-10-07T04:45:53.776Z,4.72
2022-10-07T04:48:23.562Z,4.05
2022-10-07T04:50:52.188Z,4.43
2022-10-07T04:53:20.152Z,5.68
2022-10-07T04:55:54.807Z,6.85
2022-10-07T04:58:21.408Z,8.35
2022-10-07T05:00:52.001Z,5.72
2022-10-07T05:03:21.663Z,9.90
2022-10-07T05:05:53.292Z,5.15
2022-10-07T05:08:24.421Z,5.40
2022-10-07T05:13:25.996Z,3.67
2022-10-07T05:15:58.787Z,6.18
2022-10-07T05:18:28.739Z,10.27
2022-10-07T05:20:55.639Z,6.10
2022-10-07T05:23:28.693Z,5.97
2022-10-07T05:26:02.038Z,5.00
2022-10-07T05:28:29.111Z,8.55
2022-10-07T05:31:08.621Z,5.40
2022-10-07T05:33:36.805Z,9.82
2022-10-07T05:36:06.641Z,4.10
2022-10-07T05:38:33.888Z,4.28
2022-10-07T05:41:04.520Z,8.40
2022-10-07T05:43:34.452Z,5.75
2022-10-07T05:46:08.392Z,5.30
2022-10-07T05:48:39.273Z,5.35
2022-10-07T05:51:09.789Z,5.30
2022-10-07T05:53:36.409Z,5.70
2022-10-07T05:56:10.176Z,7.45
2022-10-07T05:58:37.057Z,9.32
2022-10-07T06:01:11.462Z,7.47
2022-10-07T06:03:40.831Z,5.95
2022-10-07T06:06:08.963Z,7.50
2022-10-07T06:08:36.757Z,5.75
2022-10-07T06:11:23.747Z,6.63
2022-10-07T06:13:52.970Z,4.35
2022-10-07T06:16:21.130Z,4.07
2022-10-07T06:18:50.393Z,6.55
2022-10-07T06:21:18.717Z,6.97
2022-10-07T06:23:53.583Z,6.53
2022-10-07T06:26:22.229Z,9.23
2022-10-07T06:28:49.383Z,6.05
2022-10-07T06:31:25.013Z,7.03
2022-10-07T06:33:52.402Z,5.00
2022-10-07T06:36:19.353Z,6.43
2022-10-07T06:38:48.609Z,9.38
2022-10-07T06:41:15.937Z,7.25
2022-10-07T06:43:43.058Z,4.93
2022-10-07T06:46:17.934Z,5.95
2022-10-07T06:48:46.061Z,6.93
2022-10-07T06:51:18.867Z,5.97
2022-10-07T06:53:46.487Z,8.27
2022-10-07T06:56:14.464Z,9.27
2022-10-07T06:58:42.543Z,6.53
2022-10-07T07:01:09.735Z,6.18
2022-10-07T07:03:36.331Z,7.68
2022-10-07T07:06:02.947Z,9.13
2022-10-07T07:08:31.871Z,5.80
2022-10-07T07:11:30.493Z,7.55
2022-10-07T07:13:58.417Z,8.30
2022-10-07T07:16:25.332Z,4.75
2022-10-07T07:18:54.229Z,11.77
2022-10-07T07:21:22.723Z,9.00
2022-10-07T07:23:51.488Z,10.95
2022-10-07T07:26:20.063Z,4.57
2022-10-07T07:29:05.058Z,5.30
2022-10-07T07:31:36.419Z,9.70
2022-10-07T07:34:08.686Z,6.75
2022-10-07T07:36:36.313Z,7.78
2022-10-07T07:39:12.023Z,7.90
2022-10-07T07:41:42.081Z,6.63
2022-10-07T07:44:12.701Z,6.53
2022-10-07T07:46:49.092Z,6.28
2022-10-07T07:49:17.167Z,8.63
2022-10-07T07:51:45.015Z,7.28
2022-10-07T07:54:13.296Z,6.90
2022-10-07T07:56:40.370Z,7.25
2022-10-07T07:59:08.201Z,6.20
2022-10-07T08:01:38.971Z,9.00
2022-10-07T08:04:05.855Z,17.75
2022-10-07T08:06:33.054Z,8.35
2022-10-07T08:08:59.672Z,7.35
2022-10-07T08:11:29.370Z,10.85
2022-10-07T08:13:56.427Z,9.05
2022-10-07T08:16:26.020Z,9.55
2022-10-07T08:18:55.380Z,6.25
2022-10-07T08:21:32.758Z,8.85
2022-10-07T08:24:02.454Z,8.13
2022-10-07T08:26:32.933Z,8.98
2022-10-07T08:29:01.410Z,6.25
2022-10-07T08:31:29.671Z,8.93
2022-10-07T08:34:01.137Z,5.32
2022-10-07T08:36:33.053Z,7.20
2022-10-07T08:39:01.468Z,5.97
2022-10-07T08:42:00.724Z,5.68
2022-10-07T08:44:38.299Z,5.50
2022-10-07T08:47:20.288Z,6.47
2022-10-07T08:50:16.722Z,10.82
2022-10-07T08:53:04.135Z,8.05
2022-10-07T08:55:42.454Z,8.90
2022-10-07T08:58:43.283Z,7.72
2022-10-07T09:01:35.325Z,8.20
2022-10-07T09:04:35.713Z,9.02
2022-10-07T09:07:17.104Z,6.88
2022-10-07T09:10:00.123Z,6.38
2022-10-07T09:12:45.932Z,8.65
2022-10-07T09:15:45.215Z,6.60
2022-10-07T09:18:29.336Z,8.85
2022-10-07T09:20:56.850Z,8.02
2022-10-07T09:23:29.448Z,8.77
2022-10-07T09:25:56.645Z,13.85
2022-10-07T09:28:32.584Z,9.20
2022-10-07T09:31:00.960Z,7.13
2022-10-07T09:33:31.604Z,7.25
2022-10-07T09:38:35.849Z,7.90
2022-10-07T09:41:38.525Z,7.22
2022-10-07T09:44:25.811Z,5.65
2022-10-07T09:46:59.561Z,6.80
2022-10-07T09:49:28.896Z,9.35
2022-10-07T09:52:17.752Z,11.90
2022-10-07T09:54:48.031Z,8.32
2022-10-07T09:57:35.481Z,7.77
2022-10-07T10:00:14.132Z,13.70
2022-10-07T10:03:05.772Z,9.32
2022-10-07T10:05:37.741Z,7.28
2022-10-07T10:08:13.827Z,8.60
2022-10-07T10:10:52.545Z,11.02
2022-10-07T10:13:40.749Z,9.20
2022-10-07T10:16:28.774Z,10.77
2022-10-07T10:19:05.182Z,11.05
2022-10-07T10:21:40.809Z,8.80
2022-10-07T10:24:16.975Z,8.90
2022-10-07T10:27:22.680Z,14.77
2022-10-07T10:30:02.984Z,7.53
2022-10-07T10:33:13.343Z,8.17
2022-10-07T10:36:16.085Z,8.85
2022-10-07T10:39:06.531Z,7.25
2022-10-07T10:41:48.539Z,9.45
2022-10-07T10:44:47.046Z,9.80
2022-10-07T10:47:21.982Z,12.75
2022-10-07T10:50:27.443Z,11.25
2022-10-07T10:53:31.937Z,10.18
2022-10-07T10:56:17.391Z,14.60
2022-10-07T10:59:16.833Z,7.82
2022-10-07T11:01:50.640Z,11.07
2022-10-07T11:04:47.759Z,7.82
2022-10-07T11:07:27.453Z,8.30
2022-10-07T11:10:17.755Z,6.28
2022-10-07T11:13:13.508Z,9.55
2022-10-07T11:15:51.682Z,6.20
2022-10-07T11:18:33.861Z,10.15
2022-10-07T11:21:03.905Z,7.35
2022-10-07T11:23:47.567Z,7.57
2022-10-07T11:26:33.817Z,6.57
2022-10-07T11:29:17.095Z,6.55
2022-10-07T11:31:58.770Z,7.53
2022-10-07T11:34:48.933Z,6.78
2022-10-07T11:38:13.698Z,10.68
2022-10-07T11:40:53.738Z,9.18
2022-10-07T11:43:41.039Z,8.60
2022-10-07T11:46:22.116Z,6.25
2022-10-07T11:49:05.256Z,8.95
2022-10-07T11:51:45.282Z,5.47
2022-10-07T11:54:17.935Z,7.53
2022-10-07T11:56:59.410Z,9.48
2022-10-07T11:59:50.107Z,7.07
2022-10-07T12:02:28.959Z,8.10
2022-10-07T12:05:00.460Z,8.25
2022-10-07T12:07:33.044Z,5.43
2022-10-07T12:10:03.257Z,6.75
2022-10-07T12:12:42.406Z,7.60
2022-10-07T12:15:31.489Z,7.97
2022-10-07T12:18:04.420Z,5.97
2022-10-07T12:20:35.603Z,6.47
2022-10-07T12:23:17.303Z,8.63
2022-10-07T12:25:54.131Z,5.25
2022-10-07T12:28:34.906Z,7.40
2022-10-07T12:31:02.940Z,7.40
2022-10-07T12:33:44.554Z,6.55
2022-10-07T12:36:26.265Z,6.20
2022-10-07T12:38:56.272Z,7.07
2022-10-07T12:41:35.375Z,7.10
2022-10-07T12:44:33.375Z,6.93
2022-10-07T12:47:28.001Z,5.03
2022-10-07T12:50:13.790Z,6.30
2022-10-07T12:52:53.687Z,7.55
2022-10-07T12:55:53.021Z,6.18
2022-10-07T12:59:09.442Z,7.38
2022-10-07T13:02:22.288Z,5.95
2022-10-07T13:05:18.777Z,5.30
2022-10-07T13:08:19.107Z,4.32
2022-10-07T13:11:23.001Z,6.05
2022-10-07T13:14:00.130Z,4.97
2022-10-07T13:16:51.647Z,5.53
2022-10-07T13:19:52.640Z,6.05
2022-10-07T13:24:50.010Z,8.32
2022-10-07T13:27:21.016Z,5.53
2022-10-07T13:29:48.364Z,4.97
2022-10-07T13:32:23.693Z,6.05
2022-10-07T13:34:54.329Z,7.03
2022-10-07T13:37:30.633Z,10.52
2022-10-07T13:40:19.783Z,4.68
2022-10-07T13:42:56.571Z,3.80
2022-10-07T13:45:23.668Z,8.77
2022-10-07T13:47:51.046Z,7.53
2022-10-07T13:50:27.405Z,6.28
2022-10-07T13:52:56.398Z,4.90
2022-10-07T13:55:25.748Z,3.38
2022-10-07T13:57:57.193Z,4.93
2022-10-07T14:00:25.694Z,4.35
2022-10-07T14:02:53.282Z,4.13
2022-10-07T14:05:29.240Z,7.18
2022-10-07T14:07:59.954Z,7.68
2022-10-07T14:10:30.387Z,4.82
2022-10-07T14:13:03.374Z,3.65
2022-10-07T14:15:35.174Z,5.47
2022-10-07T14:18:05.471Z,4.03
2022-10-07T14:20:45.271Z,5.90
2022-10-07T14:23:31.019Z,4.00
2022-10-07T14:26:01.516Z,6.88
2022-10-07T14:31:25.265Z,4.43
2022-10-07T14:34:36.660Z,3.03
2022-10-07T14:37:10.553Z,3.78
2022-10-07T14:39:38.280Z,2.80
2022-10-07T14:42:14.337Z,6.95
2022-10-07T14:44:45.635Z,4.20
2022-10-07T14:47:21.100Z,8.20
2022-10-07T14:49:55.584Z,4.20
2022-10-07T14:52:42.055Z,5.40
2022-10-07T14:55:17.014Z,4.70
2022-10-07T14:57:44.140Z,3.67
2022-10-07T15:00:28.375Z,6.65
2022-10-07T15:02:55.624Z,4.80
2022-10-07T15:05:23.315Z,4.35
2022-10-07T15:07:50.698Z,4.38
2022-10-07T15:10:22.529Z,4.63
2022-10-07T15:12:50.135Z,4.68
2022-10-07T15:15:18.129Z,3.88
2022-10-07T15:17:45.689Z,7.05
2022-10-07T15:20:16.044Z,3.33
2022-10-07T15:22:44.483Z,4.22
2022-10-07T15:25:12.632Z,3.05
2022-10-07T15:27:39.938Z,4.45
2022-10-07T15:30:07.352Z,3.55
2022-10-07T15:32:34.326Z,3.97
2022-10-07T15:35:01.628Z,8.60
2022-10-07T15:37:28.275Z,3.80
2022-10-07T15:39:55.303Z,4.57
2022-10-07T15:42:24.856Z,3.88
2022-10-07T15:44:52.649Z,2.97
2022-10-07T15:47:19.457Z,5.80
2022-10-07T15:49:46.031Z,3.60
2022-10-07T15:52:12.990Z,5.30
2022-10-07T15:54:39.844Z,5.13
2022-10-07T15:57:08.191Z,8.05
2022-10-07T15:59:35.801Z,5.32
2022-10-07T16:02:10.381Z,6.90
2022-10-07T16:04:42.801Z,5.45
2022-10-07T16:07:11.222Z,5.32
2022-10-07T16:09:38.487Z,4.38
2022-10-07T16:12:05.455Z,3.95
2022-10-07T16:14:32.755Z,6.22
2022-10-07T16:16:59.292Z,5.93
2022-10-07T16:19:26.506Z,6.60
2022-10-07T16:21:53.250Z,4.43
2022-10-07T16:24:22.848Z,5.75
2022-10-07T16:26:53.327Z,8.18
2022-10-07T16:29:41.164Z,6.00
2022-10-07T16:32:10.777Z,5.93
2022-10-07T16:34:41.887Z,5.72
2022-10-07T16:37:09.154Z,9.63
2022-10-07T16:39:35.870Z,4.43
2022-10-07T16:42:02.979Z,4.53
2022-10-07T16:44:29.706Z,8.20
2022-10-07T16:46:59.139Z,4.05
2022-10-07T16:49:29.172Z,4.95
2022-10-07T16:51:56.915Z,4.27
2022-10-07T16:54:24.054Z,7.40
2022-10-07T16:56:52.848Z,7.57
2022-10-07T16:59:24.761Z,6.60
2022-10-07T17:01:55.478Z,6.47
2022-10-07T17:06:49.895Z,6.35
2022-10-07T17:09:18.296Z,8.13
2022-10-07T17:11:46.547Z,6.93
2022-10-07T17:14:20.056Z,7.95
2022-10-07T17:16:52.020Z,8.02
2022-10-07T17:19:22.678Z,4.75
2022-10-07T17:21:51.432Z,4.97
2022-10-07T17:24:20.411Z,5.82
2022-10-07T17:26:50.605Z,5.53
2022-10-07T17:29:20.771Z,11.23
2022-10-07T17:31:50.381Z,7.50
2022-10-07T17:34:20.592Z,6.10
2022-10-07T17:36:48.698Z,10.03
2022-10-07T17:39:18.131Z,10.10
2022-10-07T17:41:44.680Z,5.82
2022-10-07T17:44:12.521Z,6.18
2022-10-07T17:46:40.453Z,7.35
2022-10-07T17:49:13.295Z,7.15
2022-10-07T17:51:42.581Z,7.53
2022-10-07T17:54:13.317Z,7.40
2022-10-07T17:56:40.178Z,7.47
2022-10-07T17:59:06.913Z,8.98
2022-10-07T18:01:35.930Z,7.18
2022-10-07T18:04:24.718Z,9.70
2022-10-07T18:06:52.113Z,7.95
2022-10-07T18:09:19.306Z,11.48
2022-10-07T18:12:05.031Z,7.43
2022-10-07T18:14:53.862Z,5.07
2022-10-07T18:17:22.024Z,7.88
2022-10-07T18:19:49.277Z,8.02
2022-10-07T18:22:15.907Z,7.90
2022-10-07T18:24:42.572Z,9.60
2022-10-07T18:27:09.169Z,6.53
2022-10-07T18:29:38.289Z,10.50
2022-10-07T18:32:08.729Z,10.25
2022-10-07T18:34:35.875Z,12.25
2022-10-07T18:37:02.781Z,9.48
2022-10-07T18:39:29.822Z,8.02
2022-10-07T18:41:58.200Z,8.13
2022-10-07T18:44:25.484Z,26.35
2022-10-07T18:46:52.442Z,16.75
2022-10-07T18:49:19.475Z,15.75
2022-10-07T18:51:49.911Z,12.48
2022-10-07T18:54:21.389Z,12.35
2022-10-07T18:56:49.243Z,13.13
2022-10-07T18:59:16.507Z,11.98
2022-10-07T19:01:47.925Z,14.70
2022-10-07T19:04:16.986Z,10.88
2022-10-07T19:06:45.116Z,15.00
2022-10-07T19:09:17.203Z,11.27
2022-10-07T19:11:45.222Z,9.18
2022-10-07T19:14:12.550Z,10.25
2022-10-07T19:16:43.324Z,11.13
2022-10-07T19:21:52.858Z,10.80
2022-10-07T19:24:21.104Z,10.77
2022-10-07T19:26:50.085Z,9.32
2022-10-07T19:29:17.906Z,11.73
2022-10-07T19:31:51.280Z,9.50
2022-10-07T19:34:21.503Z,9.63
2022-10-07T19:36:50.207Z,8.85
2022-10-07T19:39:22.420Z,11.82
2022-10-07T19:41:51.035Z,11.43
2022-10-07T19:44:18.321Z,9.85
2022-10-07T19:46:44.864Z,8.40
2022-10-07T19:49:11.890Z,11.40
2022-10-07T19:51:40.366Z,10.55
2022-10-07T19:54:10.887Z,10.35
2022-10-07T19:56:39.898Z,9.23
2022-10-07T19:59:10.748Z,10.25
2022-10-07T20:01:44.511Z,9.63
2022-10-07T20:04:18.973Z,10.02
2022-10-07T20:06:45.665Z,12.35
2022-10-07T20:09:16.184Z,10.32
2022-10-07T20:11:43.582Z,12.05
2022-10-07T20:14:11.052Z,12.40
2022-10-07T20:16:39.110Z,8.68
2022-10-07T20:19:12.461Z,9.10
2022-10-07T20:21:39.415Z,11.18
2022-10-07T20:24:08.457Z,10.27
2022-10-07T20:26:38.572Z,13.13
2022-10-07T20:29:10.036Z,9.10
2022-10-07T20:31:41.435Z,8.77
2022-10-07T20:34:15.679Z,11.27
2022-10-07T20:36:43.177Z,11.73
2022-10-07T20:39:38.738Z,10.80
2022-10-07T20:42:21.604Z,11.98
2022-10-07T20:44:49.756Z,11.20
2022-10-07T20:47:17.821Z,12.02
2022-10-07T20:49:44.726Z,12.02
2022-10-07T20:52:19.724Z,10.73
2022-10-07T20:54:47.924Z,13.43
2022-10-07T20:57:21.562Z,14.55
2022-10-07T20:59:49.225Z,10.00
2022-10-07T21:02:19.133Z,10.18
2022-10-07T21:04:49.258Z,10.33
2022-10-07T21:07:18.449Z,11.65
2022-10-07T21:09:46.130Z,11.90
2022-10-07T21:12:16.816Z,11.60
2022-10-07T21:14:44.175Z,14.23
2022-10-07T21:17:11.768Z,12.60
2022-10-07T21:19:39.947Z,12.90
2022-10-07T21:22:07.159Z,10.68
2022-10-07T21:24:36.879Z,14.38
2022-10-07T21:27:06.841Z,13.93
2022-10-07T21:29:37.698Z,13.50
2022-10-07T21:32:06.954Z,12.23
2022-10-07T21:34:33.553Z,17.02
2022-10-07T21:37:00.573Z,15.50
2022-10-07T21:39:27.206Z,12.77
2022-10-07T21:41:54.855Z,16.42
2022-10-07T21:44:21.395Z,14.65
2022-10-07T21:46:48.068Z,14.48
2022-10-07T21:49:16.234Z,15.25
2022-10-07T21:51:43.609Z,13.15
2022-10-07T21:54:14.299Z,14.10
2022-10-07T21:56:43.512Z,17.88
2022-10-07T21:59:10.311Z,13.95
2022-10-07T22:01:37.160Z,16.48
2022-10-07T22:04:03.871Z,13.80
2022-10-07T22:06:50.887Z,18.35
2022-10-07T22:09:20.866Z,15.20
2022-10-07T22:11:48.941Z,13.48
2022-10-07T22:14:15.710Z,19.00
2022-10-07T22:16:42.382Z,15.68
2022-10-07T22:19:10.611Z,16.58
2022-10-07T22:21:40.097Z,19.15
2022-10-07T22:24:08.817Z,18.17
2022-10-07T22:26:46.523Z,20.38
2022-10-07T22:29:16.172Z,17.52
2022-10-07T22:31:43.571Z,20.50
2022-10-07T22:34:30.598Z,18.27
2022-10-07T22:36:58.250Z,18.60
2022-10-07T22:39:26.791Z,17.50
2022-10-07T22:41:53.620Z,17.45
2022-10-07T22:44:20.590Z,18.95
2022-10-07T22:46:47.208Z,19.33
2022-10-07T22:49:14.890Z,15.35
2022-10-07T22:51:42.674Z,17.10
2022-10-07T22:54:12.994Z,17.95
2022-10-07T22:56:40.119Z,17.05
2022-10-07T22:59:08.412Z,19.60
2022-10-07T23:01:35.813Z,18.13
2022-10-07T23:04:04.877Z,17.08
2022-10-07T23:06:34.986Z,15.80
2022-10-07T23:09:03.950Z,18.88
2022-10-07T23:11:31.396Z,14.73
2022-10-07T23:13:58.355Z,18.42
2022-10-07T23:16:33.879Z,18.15
2022-10-07T23:19:00.759Z,19.60
2022-10-07T23:21:33.935Z,17.70
2022-10-07T23:24:07.020Z,18.58
2022-10-07T23:26:35.494Z,17.02
2022-10-07T23:29:02.759Z,16.55
2022-10-07T23:31:31.979Z,21.73
2022-10-07T23:34:01.102Z,17.60
2022-10-07T23:36:28.626Z,20.30
2022-10-07T23:38:58.991Z,20.25
2022-10-07T23:41:28.980Z,21.20
2022-10-07T23:43:59.130Z,18.88
2022-10-07T23:46:27.723Z,21.23
2022-10-07T23:48:55.996Z,22.83
2022-10-07T23:51:27.798Z,21.30
2022-10-07T23:53:59.425Z,20.75
2022-10-07T23:56:26.676Z,26.55
2022-10-07T23:58:53.243Z,21.75
